CheckWX is a tool to help pilots better visualize weather data.  It is not intended as a substitute for an official pre-flight weather briefing.

06:32:22 UTC

OMDB TAF
Dubai International Airport
Dubai, United Arab Emirates
TAF OMDB 220454Z 2206/2312 20016KT 8000 NSC BECMG 2208/2210 30013KT BECMG 2215/2217 07005KT BECMG 2222/2300 29012KT

Apr-22@
06:00 UTC

Apr-22 @ 06:00 UTC

Apr-22@
08:00 UTC

Apr-22 @ 08:00 UTC

TAF OMDB 220454Z 2206/2312 20016KT 8000 NSC
Wind
  • 200° at 16 KTS
Cloud Levels
  • No significant clouds

Apr-22@
08:00 UTC

Apr-22 @ 08:00 UTC

Apr-22@
15:00 UTC

Apr-22 @ 15:00 UTC

BECMG 2208/2210 30013KT

Becoming

Becoming Conditions expected by Mon, Apr 22, 2019 @ 10:00 UTC

Wind
  • 300° at 13 KTS
Cloud Levels
  • No significant clouds

Apr-22@
15:00 UTC

Apr-22 @ 15:00 UTC

Apr-22@
22:00 UTC

Apr-22 @ 22:00 UTC

BECMG 2215/2217 07005KT

Becoming

Becoming Conditions expected by Mon, Apr 22, 2019 @ 17:00 UTC

Wind
  • 070° at 5 KTS
Cloud Levels
  • No significant clouds

Apr-22@
22:00 UTC

Apr-22 @ 22:00 UTC

Apr-23@
12:00 UTC

Apr-23 @ 12:00 UTC

BECMG 2222/2300 29012KT

Becoming

Becoming Conditions expected by Tue, Apr 23, 2019 @ 00:00 UTC

Wind
  • 290° at 12 KTS
Cloud Levels
  • No significant clouds